Time;durP1;ratioP1;P1;durP2;ratioP2;P2;SDS_P1;SDS_P2;PMS_P1;PMS_P2;Temp;Humidity;BMP_temperature;BMP_pressure;BME280_temperature;BME280_humidity;BME280_pressure;Samples;Min_cycle;Max_cycle;Signal;HPM_P1;HPM_P2
2022/02/26 00:02:06;;;;;;;54.55;28.35;;;;;;;5.15;58.44;94904.42;1487255;94;21255;-56
2022/02/26 00:04:33;;;;;;;22.07;13.80;;;;;;;5.21;58.18;94904.14;1488119;95;22260;-56
2022/02/26 00:06:59;;;;;;;18.95;11.70;;;;;;;5.16;58.41;94899.91;1480517;94;21080;-58
2022/02/26 00:09:26;;;;;;;18.25;12.75;;;;;;;5.07;58.75;94911.91;1508908;94;21464;-56
2022/02/26 00:11:53;;;;;;;22.50;14.35;;;;;;;5.03;59.06;94911.19;1514810;94;21059;-56
2022/02/26 00:14:21;;;;;;;17.87;12.47;;;;;;;4.99;59.36;94917.25;1501837;94;21195;-56
2022/02/26 00:16:47;;;;;;;15.83;11.80;;;;;;;5.00;59.13;94907.13;1522247;94;21215;-56
2022/02/26 00:19:14;;;;;;;19.87;12.47;;;;;;;4.97;59.24;94907.95;1521468;92;21064;-53
2022/02/26 00:21:41;;;;;;;21.27;13.83;;;;;;;5.01;59.15;94916.25;1508500;94;21556;-52
2022/02/26 00:24:07;;;;;;;45.08;26.60;;;;;;;4.99;59.17;94913.16;1501608;93;21070;-52
2022/02/26 00:26:35;;;;;;;55.08;31.42;;;;;;;4.88;58.87;94925.36;1478179;97;21518;-52
2022/02/26 00:29:02;;;;;;;61.55;33.13;;;;;;;4.70;59.16;94912.52;1500635;95;21053;-52
2022/02/26 00:31:29;;;;;;;51.20;27.90;;;;;;;4.57;59.78;94909.54;1508272;94;21612;-52
2022/02/26 00:33:56;;;;;;;65.15;33.45;;;;;;;4.40;60.21;94912.45;1500550;95;21045;-54
2022/02/26 00:36:22;;;;;;;62.30;33.45;;;;;;;4.34;60.66;94914.83;1500570;95;21057;-52
2022/02/26 00:38:49;;;;;;;57.30;30.05;;;;;;;4.40;61.23;94911.09;1500624;95;21088;-51
2022/02/26 00:41:16;;;;;;;30.05;18.00;;;;;;;4.50;61.32;94921.88;1501857;94;21562;-51
2022/02/26 00:43:43;;;;;;;17.00;11.68;;;;;;;4.55;61.08;94919.28;1502453;94;21079;-50
2022/02/26 00:46:12;;;;;;;12.37;9.05;;;;;;;4.58;61.02;94919.26;1501943;95;21590;-51
2022/02/26 00:51:24;;;;;;;25.35;16.25;;;;;;;4.71;60.40;94921.66;1484083;95;21899;-52
2022/02/26 00:53:51;;;;;;;28.27;18.02;;;;;;;4.69;60.11;94928.11;1493222;95;21065;-50
2022/02/26 00:56:18;;;;;;;39.92;22.95;;;;;;;4.63;60.57;94926.23;1448622;97;21558;-50
2022/02/26 00:58:44;;;;;;;33.67;20.52;;;;;;;4.64;60.85;94927.17;1475728;96;21055;-50
2022/02/26 01:01:11;;;;;;;14.65;11.18;;;;;;;4.62;60.76;94921.95;1476473;96;21084;-50
2022/02/26 01:03:39;;;;;;;32.80;20.08;;;;;;;4.62;59.86;94929.52;1463089;97;21190;-50
2022/02/26 01:06:05;;;;;;;25.45;17.17;;;;;;;4.60;59.51;94927.80;1471942;96;21020;-50
2022/02/26 01:08:32;;;;;;;19.82;12.85;;;;;;;4.56;59.54;94920.25;1473849;96;21071;-51
2022/02/26 01:10:59;;;;;;;9.78;8.73;;;;;;;4.52;59.47;94924.97;1473217;96;21212;-49
2022/02/26 01:13:26;;;;;;;9.40;8.15;;;;;;;4.53;59.64;94920.28;1455383;97;21566;-51
2022/02/26 01:15:53;;;;;;;9.50;7.95;;;;;;;4.55;59.89;94916.56;1473412;96;21238;-50
2022/02/26 01:18:20;;;;;;;12.82;10.35;;;;;;;4.57;59.66;94921.80;1471608;96;21170;-50
2022/02/26 01:20:47;;;;;;;11.55;9.90;;;;;;;4.53;59.58;94921.06;1476700;97;21061;-48
2022/02/26 01:23:13;;;;;;;13.28;10.35;;;;;;;4.52;59.87;94920.89;1467629;95;21061;-49
2022/02/26 01:25:40;;;;;;;13.55;11.10;;;;;;;4.52;60.75;94923.61;1478119;97;21105;-50
2022/02/26 01:28:06;;;;;;;16.97;11.78;;;;;;;4.55;61.11;94925.52;1478095;95;21167;-49
2022/02/26 01:30:33;;;;;;;17.92;12.98;;;;;;;4.55;61.27;94928.24;1486378;95;21529;-50
2022/02/26 01:33:00;;;;;;;21.02;15.40;;;;;;;4.57;61.48;94932.70;1471543;96;22236;-50
2022/02/26 01:35:27;;;;;;;32.58;20.05;;;;;;;4.61;61.45;94932.06;1485512;95;21029;-50
2022/02/26 01:37:53;;;;;;;29.85;21.90;;;;;;;4.63;61.37;94935.16;1471447;96;21059;-49
2022/02/26 01:40:20;;;;;;;18.10;14.00;;;;;;;4.61;61.62;94933.43;1500548;95;21200;-49
2022/02/26 01:42:47;;;;;;;15.68;11.78;;;;;;;4.66;61.59;94939.82;1504650;95;21022;-50
2022/02/26 01:45:17;;;;;;;10.00;8.23;;;;;;;4.69;60.96;94941.73;1478076;97;21566;-50
2022/02/26 01:47:44;;;;;;;13.48;10.55;;;;;;;4.52;59.98;94939.95;1500544;95;21561;-49
2022/02/26 01:50:12;;;;;;;10.23;8.93;;;;;;;4.38;60.55;94941.44;1478134;97;21576;-50
2022/02/26 01:52:39;;;;;;;14.43;11.90;;;;;;;4.41;60.76;94952.12;1477568;96;21205;-50
2022/02/26 01:55:09;;;;;;;10.90;8.70;;;;;;;4.43;60.99;94956.58;1486518;95;21009;-49
2022/02/26 01:57:36;;;;;;;8.95;7.30;;;;;;;4.44;60.46;94955.40;1500544;94;21062;-50
2022/02/26 02:00:05;;;;;;;8.83;8.00;;;;;;;4.43;60.04;94954.61;1477932;96;21156;-50
2022/02/26 02:02:32;;;;;;;38.25;22.60;;;;;;;4.37;60.21;94953.50;1482673;95;21045;-51
2022/02/26 02:04:59;;;;;;;41.70;23.35;;;;;;;4.44;60.46;94961.61;1492264;94;21150;-51
2022/02/26 02:07:27;;;;;;;32.15;19.42;;;;;;;4.54;60.50;94960.75;1497707;94;21167;-50
2022/02/26 02:09:54;;;;;;;51.28;29.63;;;;;;;4.57;60.54;94962.66;1498095;94;21033;-50
2022/02/26 02:12:21;;;;;;;34.00;21.42;;;;;;;4.63;60.37;94951.50;1498027;94;21103;-50
2022/02/26 02:14:49;;;;;;;37.65;21.65;;;;;;;4.52;60.46;94963.11;1477698;96;21073;-50
2022/02/26 02:17:16;;;;;;;26.00;17.40;;;;;;;4.40;61.18;94959.50;1503164;94;21058;-50
2022/02/26 02:19:42;;;;;;;23.95;16.97;;;;;;;4.37;60.75;94960.89;1515231;94;21057;-49
2022/02/26 02:22:10;;;;;;;21.12;15.65;;;;;;;4.27;61.02;94957.08;1477920;97;21122;-50
2022/02/26 02:24:37;;;;;;;22.82;14.15;;;;;;;4.24;61.13;94950.32;1498959;94;21021;-53
2022/02/26 02:27:04;;;;;;;22.07;13.48;;;;;;;4.25;60.68;94956.71;1481551;94;21026;-50
2022/02/26 02:29:31;;;;;;;19.65;13.40;;;;;;;4.24;61.03;94955.77;1495682;94;21908;-51
2022/02/26 02:31:59;;;;;;;14.65;11.50;;;;;;;4.30;61.21;94954.94;1495234;94;21022;-49
2022/02/26 02:34:25;;;;;;;14.68;10.93;;;;;;;4.31;60.99;94955.13;1500974;94;21234;-50
2022/02/26 02:36:52;;;;;;;17.85;10.53;;;;;;;4.30;61.12;94954.16;1470501;96;21164;-51
2022/02/26 02:39:19;;;;;;;15.60;12.40;;;;;;;4.34;61.04;94958.97;1479127;96;21192;-50
2022/02/26 02:41:45;;;;;;;19.98;14.20;;;;;;;4.47;61.11;94958.10;1502586;94;21167;-51
2022/02/26 02:44:13;;;;;;;20.50;13.83;;;;;;;4.61;61.12;94956.59;1507901;94;21076;-54
2022/02/26 02:46:42;;;;;;;18.05;13.53;;;;;;;4.76;60.83;94960.73;1473249;96;21111;-50
2022/02/26 02:49:10;;;;;;;17.65;12.40;;;;;;;4.88;60.41;94964.31;1506045;93;21068;-50
2022/02/26 02:51:36;;;;;;;15.48;10.40;;;;;;;4.94;60.26;94966.77;1543906;91;21092;-51
2022/02/26 02:54:04;;;;;;;10.43;9.38;;;;;;;4.92;60.24;94967.77;1517960;93;21192;-52
2022/02/26 02:56:31;;;;;;;15.28;12.58;;;;;;;4.88;60.17;94966.25;1494984;94;21065;-51
2022/02/26 02:58:59;;;;;;;26.57;14.40;;;;;;;4.77;60.18;94967.72;1495674;94;21057;-50
2022/02/26 03:01:27;;;;;;;24.23;14.80;;;;;;;4.64;60.61;94974.84;1494848;94;21049;-52
2022/02/26 03:03:55;;;;;;;22.87;14.25;;;;;;;4.58;61.06;94971.02;1474943;96;21032;-52
2022/02/26 03:06:25;;;;;;;22.73;13.53;;;;;;;4.61;61.19;94966.12;1445479;97;21829;-49
2022/02/26 03:08:52;;;;;;;20.90;13.35;;;;;;;4.71;61.11;94978.09;1474234;96;21091;-51
2022/02/26 03:11:20;;;;;;;24.57;14.13;;;;;;;4.76;60.84;94966.17;1466424;96;21611;-50
2022/02/26 03:13:47;;;;;;;21.90;14.38;;;;;;;4.73;60.74;94968.35;1478710;96;21090;-50
2022/02/26 03:16:15;;;;;;;40.28;21.12;;;;;;;4.69;60.81;94973.06;1500506;95;21025;-50
2022/02/26 03:18:44;;;;;;;32.78;18.98;;;;;;;4.73;60.52;94975.16;1517350;93;21046;-51
2022/02/26 03:21:11;;;;;;;24.35;14.90;;;;;;;4.76;60.28;94981.77;1508901;93;21069;-50
2022/02/26 03:23:37;;;;;;;37.35;22.13;;;;;;;4.74;60.45;94979.44;1483944;95;21513;-52
2022/02/26 03:26:04;;;;;;;34.50;19.95;;;;;;;4.64;60.89;94986.34;1456476;95;21095;-50
2022/02/26 03:28:31;;;;;;;27.22;16.50;;;;;;;4.70;61.00;94993.69;1484096;95;21029;-50
2022/02/26 03:30:58;;;;;;;22.98;15.00;;;;;;;4.72;60.49;94991.91;1505229;93;21169;-50
2022/02/26 03:33:25;;;;;;;28.92;15.00;;;;;;;4.66;60.53;94998.98;1502800;94;21129;-51
2022/02/26 03:35:51;;;;;;;22.75;14.85;;;;;;;4.67;60.96;95001.31;1486149;92;21116;-49
2022/02/26 03:38:19;;;;;;;19.02;14.55;;;;;;;4.78;60.72;94993.80;1495294;94;21075;-50
2022/02/26 03:40:45;;;;;;;23.15;15.78;;;;;;;4.82;60.42;95001.95;1493184;95;21246;-50
2022/02/26 03:43:12;;;;;;;22.95;15.80;;;;;;;4.86;60.46;95003.47;1493602;94;21137;-51
2022/02/26 03:45:39;;;;;;;23.18;15.80;;;;;;;4.89;60.57;95008.11;1472201;95;21149;-49
2022/02/26 03:48:05;;;;;;;18.80;12.50;;;;;;;4.95;60.61;95010.56;1473205;96;21458;-51
2022/02/26 03:50:32;;;;;;;12.13;10.13;;;;;;;4.87;59.99;95017.28;1479408;96;21600;-50
2022/02/26 03:52:59;;;;;;;12.43;9.43;;;;;;;4.79;59.44;95009.57;1498566;94;21088;-50
2022/02/26 03:55:26;;;;;;;10.48;8.58;;;;;;;4.80;58.99;95020.05;1486213;94;21178;-51
2022/02/26 03:57:52;;;;;;;9.60;8.60;;;;;;;4.77;58.82;95016.77;1472153;96;21565;-51
2022/02/26 04:00:19;;;;;;;10.50;8.60;;;;;;;4.71;58.44;95023.84;1478793;94;21540;-54
2022/02/26 04:02:45;;;;;;;9.13;8.25;;;;;;;4.73;58.45;95024.79;1480009;95;21682;-54
2022/02/26 04:05:13;;;;;;;9.13;7.78;;;;;;;4.79;58.40;95028.65;1469258;94;21163;-51
2022/02/26 04:07:40;;;;;;;9.63;8.15;;;;;;;4.70;58.17;95030.47;1505729;94;21224;-49
2022/02/26 04:10:09;;;;;;;11.03;8.55;;;;;;;4.60;58.18;95035.41;1504633;94;21786;-50
2022/02/26 04:12:37;;;;;;;20.50;12.73;;;;;;;4.55;58.67;95036.42;1504089;94;21622;-51
2022/02/26 04:15:06;;;;;;;20.02;13.43;;;;;;;4.65;59.01;95040.45;1505154;94;21093;-52
2022/02/26 04:17:34;;;;;;;28.32;17.65;;;;;;;4.75;59.23;95047.75;1497907;94;21109;-52
2022/02/26 04:20:01;;;;;;;32.45;17.77;;;;;;;4.80;59.37;95049.27;1478781;95;21265;-51
2022/02/26 04:22:28;;;;;;;23.15;14.65;;;;;;;4.78;59.34;95042.84;1486288;95;21546;-51
2022/02/26 04:24:56;;;;;;;17.52;13.35;;;;;;;4.71;59.41;95055.75;1488913;95;21145;-51
2022/02/26 04:27:22;;;;;;;16.77;12.68;;;;;;;4.58;59.76;95051.39;1486741;94;21071;-49
2022/02/26 04:29:49;;;;;;;15.83;11.70;;;;;;;4.58;60.28;95060.92;1458181;95;21600;-50
2022/02/26 04:32:15;;;;;;;20.68;14.05;;;;;;;4.63;60.05;95061.09;1505260;92;21260;-51
2022/02/26 04:34:42;;;;;;;18.20;12.98;;;;;;;4.71;60.11;95059.84;1507619;94;21602;-50
2022/02/26 04:37:08;;;;;;;17.73;12.23;;;;;;;4.81;59.97;95065.81;1479712;94;21159;-50
2022/02/26 04:39:35;;;;;;;24.90;16.67;;;;;;;4.86;59.84;95064.79;1518218;92;21111;-50
2022/02/26 04:42:05;;;;;;;18.85;14.53;;;;;;;4.91;59.32;95072.53;1476679;94;21506;-50
2022/02/26 04:44:33;;;;;;;17.40;12.55;;;;;;;4.84;59.38;95066.36;1497033;93;21188;-50
2022/02/26 04:46:59;;;;;;;25.27;16.70;;;;;;;4.81;59.46;95069.89;1500323;93;21131;-51
2022/02/26 04:49:26;;;;;;;35.65;21.20;;;;;;;4.78;59.88;95066.62;1505519;93;21088;-54
2022/02/26 04:51:52;;;;;;;71.92;35.52;;;;;;;4.77;60.12;95075.37;1494041;95;21565;-52
2022/02/26 04:54:19;;;;;;;64.92;31.52;;;;;;;4.76;60.41;95075.18;1490203;94;21095;-51
2022/02/26 04:56:46;;;;;;;42.73;23.83;;;;;;;4.75;60.82;95072.27;1486449;94;21185;-51
2022/02/26 04:59:13;;;;;;;41.40;23.83;;;;;;;4.76;60.88;95077.91;1503011;93;21108;-50
2022/02/26 05:01:40;;;;;;;37.23;20.37;;;;;;;4.82;60.65;95081.73;1500881;93;21607;-49
2022/02/26 05:04:07;;;;;;;37.63;19.37;;;;;;;4.83;60.77;95086.02;1489609;95;21029;-50
2022/02/26 05:06:34;;;;;;;29.82;16.25;;;;;;;4.86;60.55;95100.23;1479045;94;21032;-50
2022/02/26 05:09:01;;;;;;;28.60;16.27;;;;;;;4.88;60.59;95097.08;1489838;94;21883;-51
2022/02/26 05:11:28;;;;;;;19.95;14.30;;;;;;;4.88;60.76;95102.53;1498483;93;21174;-52
2022/02/26 05:13:55;;;;;;;31.15;18.15;;;;;;;4.91;60.34;95101.15;1505187;94;21643;-51
2022/02/26 05:16:23;;;;;;;36.88;21.57;;;;;;;4.86;60.11;95101.59;1480420;94;21079;-57
2022/02/26 05:18:49;;;;;;;28.83;18.60;;;;;;;4.76;60.62;95108.48;1503705;94;21602;-54
2022/02/26 05:21:17;;;;;;;38.98;23.32;;;;;;;4.80;60.78;95105.90;1483840;94;21161;-55
2022/02/26 05:23:43;;;;;;;61.88;33.75;;;;;;;4.83;60.45;95117.36;1501671;95;21456;-54
2022/02/26 05:26:13;;;;;;;57.53;32.85;;;;;;;4.69;60.68;95116.13;1482983;94;21675;-55
2022/02/26 05:28:40;;;;;;;55.40;33.48;;;;;;;4.60;61.08;95119.87;1477368;95;21273;-55
2022/02/26 05:31:06;;;;;;;51.88;28.35;;;;;;;4.66;61.14;95124.31;1499315;94;21222;-55
2022/02/26 05:33:34;;;;;;;37.48;22.87;;;;;;;4.74;60.90;95121.71;1467073;95;21953;-56
2022/02/26 05:36:01;;;;;;;40.12;24.90;;;;;;;4.74;60.97;95129.89;1476804;96;21073;-54
2022/02/26 05:38:28;;;;;;;38.98;23.30;;;;;;;4.65;61.25;95134.45;1493944;94;21114;-57
2022/02/26 05:40:55;;;;;;;61.40;35.52;;;;;;;4.54;61.58;95136.45;1500993;94;21054;-57
2022/02/26 05:43:21;;;;;;;50.12;34.40;;;;;;;4.52;61.80;95136.66;1478803;95;21158;-57
2022/02/26 05:45:48;;;;;;;44.75;29.20;;;;;;;4.56;61.91;95136.05;1502846;94;21138;-56
2022/02/26 05:48:15;;;;;;;49.20;29.25;;;;;;;4.65;61.58;95137.18;1503640;94;21121;-54
2022/02/26 05:50:42;;;;;;;39.13;27.20;;;;;;;4.67;61.59;95136.19;1481977;95;21594;-54
2022/02/26 05:53:09;;;;;;;41.25;27.85;;;;;;;4.66;61.53;95141.45;1500216;94;21094;-55
2022/02/26 05:55:36;;;;;;;39.42;27.13;;;;;;;4.67;61.61;95140.27;1483835;94;21628;-54
2022/02/26 05:58:02;;;;;;;49.90;34.75;;;;;;;4.71;61.37;95148.41;1463614;96;21202;-58
2022/02/26 06:00:29;;;;;;;37.23;22.37;;;;;;;4.61;61.63;95147.30;1451413;98;21609;-55
2022/02/26 06:02:56;;;;;;;38.00;23.32;;;;;;;4.58;62.05;95160.36;1518560;94;21100;-56
2022/02/26 06:05:22;;;;;;;45.60;27.27;;;;;;;4.53;62.28;95158.06;1513893;94;21063;-55
2022/02/26 06:07:49;;;;;;;38.92;25.32;;;;;;;4.44;62.43;95159.08;1517003;93;21648;-55
2022/02/26 06:10:16;;;;;;;38.75;23.98;;;;;;;4.42;62.66;95168.23;1515360;94;21939;-57
2022/02/26 06:12:42;;;;;;;38.02;25.27;;;;;;;4.46;62.53;95169.59;1501839;94;21187;-58
2022/02/26 06:15:10;;;;;;;40.03;25.95;;;;;;;4.44;62.65;95167.25;1505274;94;21119;-61
2022/02/26 06:17:38;;;;;;;50.70;31.87;;;;;;;4.35;62.79;95175.66;1473570;96;21463;-58
2022/02/26 06:20:06;;;;;;;67.15;42.83;;;;;;;4.24;63.21;95174.95;1515314;94;21088;-59
2022/02/26 06:22:33;;;;;;;83.52;53.95;;;;;;;4.21;63.46;95177.11;1501175;94;21177;-58
2022/02/26 06:25:03;;;;;;;84.83;55.85;;;;;;;4.19;63.63;95186.23;1492402;94;21577;-60
2022/02/26 06:27:38;;;;;;;101.50;65.78;;;;;;;4.24;63.70;95193.41;1530987;92;21081;-57
2022/02/26 06:30:06;;;;;;;95.38;62.50;;;;;;;4.39;63.68;95196.27;1500729;94;21058;-58
2022/02/26 06:32:35;;;;;;;51.45;33.18;;;;;;;4.54;63.42;95193.67;1523286;93;21062;-56
2022/02/26 06:35:04;;;;;;;40.45;26.65;;;;;;;4.69;62.53;95199.80;1476084;94;21240;-56
2022/02/26 06:37:31;;;;;;;37.80;23.98;;;;;;;4.73;61.60;95206.80;1521100;92;21591;-57
2022/02/26 06:39:57;;;;;;;33.20;21.00;;;;;;;4.75;60.65;95211.25;1503510;94;21475;-55
2022/02/26 06:42:24;;;;;;;28.10;17.73;;;;;;;4.81;60.30;95213.73;1529494;92;21132;-57
2022/02/26 06:44:51;;;;;;;22.67;13.68;;;;;;;4.87;59.97;95217.62;1486812;96;21572;-56
2022/02/26 06:47:18;;;;;;;26.42;16.35;;;;;;;4.86;59.43;95218.00;1483398;95;21170;-57
2022/02/26 06:49:45;;;;;;;29.00;18.07;;;;;;;4.81;59.07;95228.73;1500298;94;21065;-56
2022/02/26 06:52:12;;;;;;;37.45;20.70;;;;;;;4.79;58.90;95229.72;1505526;93;21146;-59
2022/02/26 06:54:40;;;;;;;16.95;10.35;;;;;;;4.83;58.79;95233.19;1516157;93;21111;-56
2022/02/26 06:57:07;;;;;;;12.73;8.25;;;;;;;4.88;58.42;95238.82;1508146;94;21060;-57
2022/02/26 06:59:33;;;;;;;44.03;27.67;;;;;;;4.88;57.59;95241.55;1506744;94;22374;-54
2022/02/26 07:02:00;;;;;;;20.77;12.82;;;;;;;4.83;57.46;95246.06;1498449;94;21092;-54
2022/02/26 07:04:29;;;;;;;18.85;14.35;;;;;;;4.79;57.62;95240.62;1514790;93;21083;-55
2022/02/26 07:06:55;;;;;;;20.25;12.53;;;;;;;4.74;57.80;95247.07;1514588;93;21110;-54
2022/02/26 07:09:22;;;;;;;21.42;13.98;;;;;;;4.72;57.67;95243.39;1498662;94;21068;-53
2022/02/26 07:11:49;;;;;;;17.73;10.32;;;;;;;4.67;57.68;95232.92;1506805;93;21220;-53
2022/02/26 07:14:16;;;;;;;11.80;8.35;;;;;;;4.73;57.71;95246.31;1492822;94;21229;-58
2022/02/26 07:16:43;;;;;;;24.07;14.38;;;;;;;4.83;57.17;95249.55;1464667;95;21082;-56
2022/02/26 07:19:10;;;;;;;30.17;17.85;;;;;;;4.86;57.13;95247.41;1515660;93;21092;-60
2022/02/26 07:21:39;;;;;;;16.97;11.35;;;;;;;4.85;57.02;95244.50;1496420;93;21134;-51
2022/02/26 07:24:06;;;;;;;18.90;10.03;;;;;;;4.87;57.52;95248.17;1497833;94;21191;-55
2022/02/26 07:26:33;;;;;;;17.07;12.23;;;;;;;5.00;57.17;95247.31;1506308;93;21117;-55
2022/02/26 07:29:00;;;;;;;61.15;35.48;;;;;;;5.13;57.03;95245.67;1483005;95;21145;-57
2022/02/26 07:31:27;;;;;;;34.65;23.02;;;;;;;5.14;56.97;95254.04;1486136;95;21152;-58
2022/02/26 07:33:56;;;;;;;42.73;25.37;;;;;;;5.26;56.82;95250.84;1476223;96;21091;-56
2022/02/26 07:36:23;;;;;;;24.30;15.05;;;;;;;5.37;56.53;95254.25;1474123;96;22358;-55
2022/02/26 07:38:50;;;;;;;14.85;9.75;;;;;;;5.50;55.63;95260.22;1480008;95;21148;-55
2022/02/26 07:41:16;;;;;;;9.10;7.15;;;;;;;5.49;55.65;95260.60;1487490;94;21135;-56
2022/02/26 07:43:43;;;;;;;7.50;6.70;;;;;;;5.52;55.66;95266.62;1497431;92;21483;-53
2022/02/26 07:46:12;;;;;;;12.90;7.45;;;;;;;5.49;54.83;95266.06;1480755;94;21040;-54
2022/02/26 07:48:38;;;;;;;9.20;7.40;;;;;;;5.48;54.44;95268.60;1499264;94;21167;-54
2022/02/26 07:51:05;;;;;;;19.95;13.85;;;;;;;5.47;54.12;95265.11;1499419;93;21329;-54
2022/02/26 07:53:34;;;;;;;11.75;7.25;;;;;;;5.44;53.85;95271.95;1484414;95;21529;-53
2022/02/26 07:56:01;;;;;;;9.03;6.47;;;;;;;5.37;53.46;95265.17;1496033;94;21118;-56
2022/02/26 07:58:29;;;;;;;9.50;6.25;;;;;;;5.34;53.50;95264.61;1500128;93;21121;-56
2022/02/26 08:00:58;;;;;;;14.93;9.80;;;;;;;5.34;53.63;95267.34;1487035;94;21159;-56
2022/02/26 08:03:25;;;;;;;10.35;8.10;;;;;;;5.44;53.85;95267.25;1478943;92;21139;-54
2022/02/26 08:05:52;;;;;;;12.33;7.08;;;;;;;5.55;53.72;95264.45;1495938;95;21249;-64
2022/02/26 08:08:19;;;;;;;10.25;7.45;;;;;;;5.64;53.95;95274.33;1497393;94;21137;-55
2022/02/26 08:10:47;;;;;;;20.90;17.70;;;;;;;5.62;53.84;95264.41;1495126;94;21211;-56
2022/02/26 08:13:13;;;;;;;18.62;13.83;;;;;;;5.68;53.15;95264.94;1500537;94;21172;-55
2022/02/26 08:15:42;;;;;;;16.97;12.90;;;;;;;5.74;53.61;95267.98;1487111;94;21025;-55
2022/02/26 08:18:10;;;;;;;19.73;10.72;;;;;;;5.74;53.80;95271.50;1478005;95;21213;-51
2022/02/26 08:20:38;;;;;;;21.77;16.23;;;;;;;5.81;53.99;95274.80;1483670;94;21069;-57
2022/02/26 08:23:05;;;;;;;19.10;11.73;;;;;;;5.87;53.57;95267.71;1485197;95;21144;-55
2022/02/26 08:25:32;;;;;;;16.77;10.80;;;;;;;5.83;52.73;95265.61;1471244;95;21312;-55
2022/02/26 08:27:59;;;;;;;15.30;12.10;;;;;;;5.70;52.61;95266.67;1479634;95;21180;-54
2022/02/26 08:30:25;;;;;;;14.53;10.28;;;;;;;5.57;52.68;95275.16;1481009;95;21133;-57
2022/02/26 08:32:52;;;;;;;19.62;11.25;;;;;;;5.45;52.93;95272.14;1461436;96;20994;-54
2022/02/26 08:35:20;;;;;;;14.75;11.48;;;;;;;5.27;53.33;95282.41;1453309;96;21235;-53
2022/02/26 08:37:47;;;;;;;24.60;21.35;;;;;;;5.12;53.59;95285.63;1460338;96;21196;-56
2022/02/26 08:40:21;;;;;;;43.28;33.25;;;;;;;5.06;54.16;95287.99;1498870;93;21159;-56
2022/02/26 08:42:48;;;;;;;23.07;15.83;;;;;;;5.11;54.41;95283.47;1481735;94;21202;-56
2022/02/26 08:45:16;;;;;;;19.25;13.50;;;;;;;5.12;53.89;95285.63;1471909;96;21135;-54
2022/02/26 08:47:43;;;;;;;17.15;12.03;;;;;;;5.02;53.92;95288.61;1476567;95;21117;-54
2022/02/26 08:50:17;;;;;;;19.80;12.78;;;;;;;4.88;54.20;95296.06;1462909;95;21156;-59
2022/02/26 08:52:53;;;;;;;27.50;17.82;;;;;;;4.78;54.52;95296.30;1483312;94;21180;-58
2022/02/26 08:55:24;;;;;;;27.80;16.52;;;;;;;4.75;55.03;95302.55;1445550;97;21158;-52
2022/02/26 08:57:58;;;;;;;23.30;14.30;;;;;;;4.75;54.99;95309.97;1502897;93;21127;-56
2022/02/26 09:00:28;;;;;;;25.37;16.02;;;;;;;4.74;54.66;95307.02;1502188;93;21624;-52
2022/02/26 09:02:56;;;;;;;25.80;16.23;;;;;;;4.65;54.54;95302.03;1470003;95;21243;-55
2022/02/26 09:05:23;;;;;;;24.70;15.20;;;;;;;4.61;54.87;95298.52;1485222;95;21064;-57
2022/02/26 09:07:50;;;;;;;21.35;13.80;;;;;;;4.56;54.83;95304.95;1474803;95;21118;-60
2022/02/26 09:10:17;;;;;;;24.72;15.20;;;;;;;4.51;54.54;95304.80;1472659;94;22171;-59
2022/02/26 09:12:50;;;;;;;15.25;8.90;;;;;;;4.48;54.71;95305.59;1488182;93;21153;-58
2022/02/26 09:15:34;;;;;;;12.37;9.35;;;;;;;4.45;52.82;95315.89;1496212;94;21184;-61
2022/02/26 09:18:02;;;;;;;16.57;10.48;;;;;;;4.51;52.64;95317.06;1480753;95;21143;-61
2022/02/26 09:20:29;;;;;;;10.68;7.58;;;;;;;4.61;52.28;95317.59;1502962;93;21204;-54
2022/02/26 09:22:58;;;;;;;18.70;10.72;;;;;;;4.73;51.32;95310.34;1488952;94;21660;-56
2022/02/26 09:25:25;;;;;;;25.80;13.60;;;;;;;4.80;53.29;95314.40;1516831;92;21168;-52
2022/02/26 09:27:52;;;;;;;20.20;12.75;;;;;;;4.82;53.98;95317.50;1480429;93;21199;-55
2022/02/26 09:30:19;;;;;;;22.22;12.88;;;;;;;4.86;54.30;95319.64;1498051;94;21244;-56
2022/02/26 09:32:47;;;;;;;17.10;9.60;;;;;;;4.90;54.46;95316.31;1477262;94;21097;-53
2022/02/26 09:35:14;;;;;;;16.75;11.35;;;;;;;4.91;52.87;95316.50;1479101;94;21631;-55
2022/02/26 09:37:45;;;;;;;34.98;23.85;;;;;;;5.01;53.77;95317.02;1489614;94;21187;-65
2022/02/26 09:40:12;;;;;;;21.82;12.60;;;;;;;5.07;53.91;95312.72;1472135;94;22144;-57
2022/02/26 09:42:40;;;;;;;14.78;8.55;;;;;;;5.27;52.30;95305.58;1494396;94;21111;-65
2022/02/26 09:45:09;;;;;;;9.85;6.92;;;;;;;5.44;51.07;95313.64;1472979;96;21612;-60
2022/02/26 09:47:39;;;;;;;13.53;7.12;;;;;;;5.60;50.45;95308.45;1476699;94;21100;-61
2022/02/26 09:50:07;;;;;;;15.98;9.68;;;;;;;5.73;49.79;95312.27;1475276;96;21188;-55
2022/02/26 09:52:38;;;;;;;16.70;8.25;;;;;;;5.80;49.17;95323.15;1472943;95;22002;-54
2022/02/26 09:55:07;;;;;;;9.40;6.80;;;;;;;5.84;49.16;95323.13;1473786;95;21159;-55
2022/02/26 09:57:36;;;;;;;19.50;9.05;;;;;;;5.87;48.82;95319.02;1479381;95;21099;-56
2022/02/26 10:00:07;;;;;;;20.90;9.30;;;;;;;5.88;49.17;95310.22;1478016;94;22341;-56
2022/02/26 10:02:36;;;;;;;24.72;11.03;;;;;;;5.89;48.74;95317.23;1471652;96;21104;-55
2022/02/26 10:05:07;;;;;;;25.57;11.12;;;;;;;5.99;49.68;95319.11;1489158;94;21184;-51
2022/02/26 10:07:35;;;;;;;24.40;12.05;;;;;;;6.13;50.01;95312.91;1511667;93;21235;-54
2022/02/26 10:10:10;;;;;;;21.07;9.85;;;;;;;6.45;50.14;95318.84;1493670;94;21136;-55
2022/02/26 10:12:42;;;;;;;14.20;7.85;;;;;;;6.85;49.63;95322.09;1501110;93;21050;-54
2022/02/26 10:15:27;;;;;;;19.07;9.85;;;;;;;7.02;48.99;95318.37;1476411;95;21691;-53
2022/02/26 10:18:16;;;;;;;26.57;10.38;;;;;;;6.91;48.29;95323.19;1486292;94;21193;-53
2022/02/26 10:20:54;;;;;;;20.95;11.00;;;;;;;6.69;47.18;95321.13;1513692;93;21025;-52
2022/02/26 10:23:25;;;;;;;22.48;8.28;;;;;;;6.65;46.66;95325.26;1495190;94;21061;-56
2022/02/26 10:26:11;;;;;;;11.65;7.17;;;;;;;6.72;46.45;95329.88;1501911;92;21116;-52
2022/02/26 10:28:40;;;;;;;28.35;11.70;;;;;;;6.69;46.24;95334.19;1501230;93;21628;-51
2022/02/26 10:31:08;;;;;;;24.15;10.90;;;;;;;6.60;46.33;95331.76;1478963;95;21232;-54
2022/02/26 10:33:35;;;;;;;22.65;9.70;;;;;;;6.54;46.06;95332.03;1469032;97;21152;-55
2022/02/26 10:36:10;;;;;;;11.00;6.90;;;;;;;6.51;46.36;95332.84;1502662;93;21067;-57
2022/02/26 10:38:39;;;;;;;12.03;7.10;;;;;;;6.52;46.54;95336.52;1514783;93;21182;-56
2022/02/26 10:41:09;;;;;;;24.63;11.18;;;;;;;6.46;46.00;95332.69;1483976;94;21727;-58
2022/02/26 10:43:51;;;;;;;16.52;8.40;;;;;;;6.41;45.72;95335.87;1493131;95;21285;-62
2022/02/26 10:46:31;;;;;;;26.42;9.10;;;;;;;6.41;46.34;95335.08;1514612;93;21123;-58
2022/02/26 10:49:07;;;;;;;13.80;8.63;;;;;;;6.38;46.29;95333.17;1519085;93;21263;-58
2022/02/26 10:51:37;;;;;;;23.30;9.40;;;;;;;6.35;46.21;95339.45;1508297;93;21159;-59
2022/02/26 10:54:07;;;;;;;18.45;8.88;;;;;;;6.31;46.22;95341.45;1514162;93;21107;-59
2022/02/26 10:56:41;;;;;;;9.90;6.40;;;;;;;6.22;46.53;95351.48;1507000;93;21164;-59
2022/02/26 10:59:10;;;;;;;8.15;6.40;;;;;;;6.10;46.94;95344.34;1512820;94;21036;-60
2022/02/26 11:01:38;;;;;;;16.67;8.35;;;;;;;6.04;46.80;95345.97;1474330;94;21154;-59
2022/02/26 11:04:05;;;;;;;23.75;9.08;;;;;;;6.03;46.60;95352.61;1479079;93;21131;-57
2022/02/26 11:06:34;;;;;;;13.30;7.62;;;;;;;6.05;46.50;95337.96;1501173;94;21109;-58
2022/02/26 11:09:01;;;;;;;12.15;8.55;;;;;;;6.03;46.94;95344.42;1482475;95;21146;-57
2022/02/26 11:11:29;;;;;;;20.88;9.73;;;;;;;5.96;46.43;95346.62;1492142;94;21096;-58
2022/02/26 11:13:56;;;;;;;20.68;11.38;;;;;;;5.93;46.94;95345.30;1473911;94;21168;-59
2022/02/26 11:16:24;;;;;;;15.68;8.80;;;;;;;5.98;47.00;95348.35;1492909;93;21124;-58
2022/02/26 11:18:54;;;;;;;17.15;8.73;;;;;;;6.01;47.00;95348.15;1498465;95;21124;-57
2022/02/26 11:21:24;;;;;;;14.38;8.00;;;;;;;5.95;46.88;95345.67;1476962;97;21138;-58
2022/02/26 11:23:51;;;;;;;11.88;7.33;;;;;;;5.95;47.33;95338.23;1481982;94;21095;-56
2022/02/26 11:26:19;;;;;;;25.82;8.20;;;;;;;6.09;46.85;95335.97;1490150;94;21152;-56
2022/02/26 11:28:52;;;;;;;14.93;7.83;;;;;;;6.20;47.13;95343.48;1486570;95;21076;-57
2022/02/26 11:31:23;;;;;;;14.25;7.15;;;;;;;6.31;46.83;95340.84;1473698;95;21126;-53
2022/02/26 11:33:50;;;;;;;12.60;7.28;;;;;;;6.32;46.55;95336.17;1479090;95;21397;-56